createdAt,value
2023-02-19T00:10:13.412Z,7.98
2023-02-19T00:15:33.098Z,8.01
2023-02-19T00:26:17.971Z,7.97
2023-02-19T00:36:50.513Z,7.97
2023-02-19T00:43:24.643Z,7.97
2023-02-19T00:52:48.283Z,7.96
2023-02-19T01:08:44.887Z,7.93
2023-02-19T01:19:23.741Z,7.9
2023-02-19T01:24:42.706Z,7.87
2023-02-19T01:35:20.614Z,7.87
2023-02-19T01:40:39.743Z,7.87
2023-02-19T01:51:18.335Z,7.84
2023-02-19T02:07:17.026Z,7.83
2023-02-19T02:17:55.981Z,7.8
2023-02-19T02:23:15.481Z,7.8
2023-02-19T02:33:53.663Z,7.79
2023-02-19T02:49:51.818Z,7.76
2023-02-19T03:00:30.100Z,7.76
2023-02-19T03:05:49.817Z,7.76
2023-02-19T03:16:28.032Z,7.7
2023-02-19T03:27:31.027Z,7.72
2023-02-19T03:32:50.618Z,7.7
2023-02-19T03:43:29.660Z,7.7
2023-02-19T03:59:26.951Z,7.69
2023-02-19T04:04:46.334Z,7.69
2023-02-19T04:10:05.276Z,7.69
2023-02-19T04:15:24.364Z,7.67
2023-02-19T04:26:04.153Z,7.66
2023-02-19T04:31:24.621Z,7.66
2023-02-19T04:42:02.829Z,7.66
2023-02-19T05:08:38.040Z,7.62
2023-02-19T05:24:35.861Z,7.58
2023-02-19T05:40:32.976Z,7.56
2023-02-19T05:51:11.828Z,7.56
2023-02-19T06:07:08.878Z,7.52
2023-02-19T06:23:06.449Z,7.51
2023-02-19T06:33:44.617Z,7.49
2023-02-19T06:39:04.221Z,7.51
2023-02-19T06:49:43.569Z,7.49
2023-02-19T07:00:22.147Z,7.51
2023-02-19T07:05:41.409Z,7.51
2023-02-19T07:16:19.592Z,7.49
2023-02-19T07:21:38.974Z,7.53
2023-02-19T07:32:17.572Z,7.52
2023-02-19T07:37:37.192Z,7.55
2023-02-19T07:48:16.421Z,7.65
2023-02-19T07:58:55.362Z,7.67
2023-02-19T08:04:14.911Z,7.72
2023-02-19T08:14:54.283Z,7.79
2023-02-19T08:25:32.595Z,7.79
2023-02-19T08:30:52.232Z,7.82
2023-02-19T08:46:50.341Z,8.04
2023-02-19T08:57:29.378Z,8.08
2023-02-19T09:02:48.367Z,8.08
2023-02-19T09:13:26.542Z,8.1
2023-02-19T09:18:45.534Z,8.1
2023-02-19T09:29:24.429Z,8.1
2023-02-19T09:40:04.105Z,8.13
2023-02-19T09:45:23.155Z,8.14
2023-02-19T09:56:01.884Z,8.18
2023-02-19T10:01:20.714Z,8.18
2023-02-19T10:22:38.707Z,8.21
2023-02-19T10:27:58.646Z,8.21
2023-02-19T10:33:17.663Z,8.21
2023-02-19T10:49:14.080Z,8.22
2023-02-19T11:05:12.325Z,8.38
2023-02-19T11:15:51.619Z,8.47
2023-02-19T11:21:10.722Z,8.6
2023-02-19T11:31:48.621Z,8.82
2023-02-19T11:47:47.398Z,8.95
2023-02-19T11:58:25.372Z,8.93
2023-02-19T12:03:44.977Z,8.92
2023-02-19T12:09:03.664Z,8.93
2023-02-19T12:14:23.030Z,8.92
2023-02-19T12:19:41.789Z,8.91
2023-02-19T12:30:20.149Z,8.85
2023-02-19T12:40:58.509Z,8.85
2023-02-19T12:46:18.096Z,8.85
2023-02-19T12:56:55.723Z,8.81
2023-02-19T13:02:14.612Z,8.82
2023-02-19T13:12:53.138Z,8.72
2023-02-19T13:23:30.936Z,8.71
2023-02-19T13:28:50.108Z,8.68
2023-02-19T13:39:30.555Z,8.72
2023-02-19T13:44:48.065Z,8.68
2023-02-19T13:55:26.829Z,8.71
2023-02-19T14:06:04.971Z,8.62
2023-02-19T14:11:23.912Z,8.58
2023-02-19T14:22:02.117Z,8.58
2023-02-19T14:27:21.852Z,8.64
2023-02-19T14:37:59.887Z,8.62
2023-02-19T14:43:19.610Z,8.62
2023-02-19T14:53:58.655Z,8.72
2023-02-19T15:04:37.738Z,8.72
2023-02-19T15:09:55.966Z,8.72
2023-02-19T15:20:35.159Z,8.68
2023-02-19T15:36:32.842Z,8.68
2023-02-19T15:41:51.899Z,8.68
2023-02-19T15:52:30.280Z,8.64
2023-02-19T16:03:08.731Z,8.6
2023-02-19T16:08:30.557Z,8.6
2023-02-19T16:19:06.168Z,8.55
2023-02-19T16:35:04.440Z,8.47
2023-02-19T16:45:42.764Z,8.43
2023-02-19T16:51:01.958Z,8.41
2023-02-19T16:56:21.611Z,8.41
2023-02-19T17:12:19.106Z,8.31
2023-02-19T17:22:57.863Z,8.28
2023-02-19T17:28:17.625Z,8.27
2023-02-19T17:38:56.381Z,8.24
2023-02-19T17:44:15.322Z,8.22
2023-02-19T17:54:53.772Z,8.18
2023-02-19T18:10:51.533Z,8.1
2023-02-19T18:16:10.264Z,8.1
2023-02-19T18:21:29.590Z,8.13
2023-02-19T18:26:48.665Z,8.1
2023-02-19T18:37:26.661Z,8.06
2023-02-19T18:42:45.619Z,8.04
2023-02-19T18:48:05.415Z,8.01
2023-02-19T18:53:24.676Z,8.01
2023-02-19T19:04:03.257Z,7.97
2023-02-19T19:09:22.749Z,7.94
2023-02-19T19:20:02.693Z,7.93
2023-02-19T19:35:59.585Z,7.89
2023-02-19T19:46:37.867Z,7.87
2023-02-19T19:51:58.517Z,7.86
2023-02-19T20:02:35.954Z,7.82
2023-02-19T20:07:54.627Z,7.84
2023-02-19T20:18:32.705Z,7.79
2023-02-19T20:23:51.978Z,7.76
2023-02-19T20:29:11.646Z,7.74
2023-02-19T20:34:31.304Z,7.76
2023-02-19T20:45:09.980Z,7.72
2023-02-19T20:50:29.077Z,7.69
2023-02-19T21:01:07.997Z,7.69
2023-02-19T21:06:27.428Z,7.69
2023-02-19T21:17:30.350Z,7.62
2023-02-19T21:33:27.936Z,7.61
2023-02-19T21:38:47.377Z,7.59
2023-02-19T21:49:25.943Z,7.55
2023-02-19T22:00:03.880Z,7.56
2023-02-19T22:16:02.118Z,7.53
2023-02-19T22:26:41.349Z,7.53
2023-02-19T22:32:00.539Z,7.51
2023-02-19T22:42:38.744Z,7.48
2023-02-19T22:47:58.044Z,7.51
2023-02-19T22:58:37.024Z,7.46
2023-02-19T23:03:55.167Z,7.48
2023-02-19T23:14:33.178Z,7.43
2023-02-19T23:19:52.509Z,7.43
2023-02-19T23:25:11.697Z,7.42
2023-02-19T23:30:30.924Z,7.41
2023-02-19T23:35:50.592Z,7.42
2023-02-19T23:41:09.497Z,7.38
2023-02-19T23:51:47.838Z,7.33
